Forestville, Canada
Current Conditions -  °F | °C
As of 9:00 AM on Wednesday 26 Nov 2014 (Local Time) from CYYY Reporting Station
Broken Clouds Broken Clouds  
Wind Chill: 17°   Ceiling: 8000
Heat Index: 28°   Visibility: 30mi
Dew Point: 18°   Wind: 15mph
Humidity: 64%   Direction: 310°NW
Pressure: 30.2"   Gusts: NA
Location:  48.73°N, 69.07°W
Report Text: CYYY 261400Z 31013KT 30SM SCT045 BKN080 M02/M08 A3020 RMK SC4AC3 PRESRR SLP231
Loading
Personal Weather Stations






























Interactive Weather Map New forecast layout! Learn more

10-Day Weather Forecast

Advertisements
Track Severe Weather on mobile